createdAt,value
2019-03-22T10:03:54.040Z,23.6
2019-03-22T10:13:57.672Z,18.7
2019-03-22T10:24:01.346Z,18.5
2019-03-22T10:34:05.030Z,19.5
2019-03-22T10:44:08.668Z,19.1
2019-03-22T10:54:12.338Z,19.2
2019-03-22T11:04:15.908Z,19.3
2019-03-22T11:14:19.465Z,19.7
2019-03-22T11:24:22.975Z,19.7
2019-03-22T11:34:26.489Z,19.3
2019-03-22T11:44:29.994Z,20
2019-03-22T11:54:33.490Z,19.7
2019-03-22T12:04:36.983Z,19.7
2019-03-22T12:14:40.449Z,19.6
2019-03-22T12:24:43.946Z,20
2019-03-22T12:34:47.450Z,21.4
2019-03-22T12:44:50.966Z,22.1
2019-03-22T12:54:54.462Z,22.3
2019-03-22T13:04:57.975Z,22.2
2019-03-22T13:15:01.449Z,22.2
2019-03-22T13:25:04.969Z,22.2
2019-03-22T13:35:08.523Z,22.3
2019-03-22T13:45:12.029Z,22.3
2019-03-22T13:55:15.536Z,22.4
2019-03-22T14:05:19.047Z,22.4
2019-03-22T14:15:22.501Z,22.4
2019-03-22T14:25:27.504Z,22.4
2019-03-22T14:35:30.998Z,22.6
2019-03-22T14:45:34.519Z,22.5
2019-03-22T14:55:38.001Z,22.6
2019-03-22T15:05:41.490Z,22.6
2019-03-22T15:15:44.957Z,22.6
2019-03-22T15:25:48.487Z,22.6
2019-03-22T15:35:52.059Z,22.7
2019-03-22T15:45:55.907Z,22.8
2019-03-22T15:55:59.432Z,22.9
2019-03-22T16:06:02.956Z,22.9
2019-03-22T16:16:06.441Z,22.9
2019-03-22T16:26:09.949Z,22.9
2019-03-22T16:36:13.461Z,22.9
2019-03-22T16:46:16.976Z,22.9
2019-03-22T16:56:20.472Z,22.9
2019-03-22T17:06:23.997Z,22.8
2019-03-22T17:16:27.467Z,22.8
2019-03-22T17:26:30.967Z,22.8
2019-03-22T17:36:34.502Z,22.8
2019-03-22T17:46:38.020Z,22.7
2019-03-22T17:56:41.548Z,22.7
2019-03-22T18:06:45.047Z,22.7
2019-03-22T18:16:48.545Z,22.7
2019-03-22T18:26:52.053Z,22.7
2019-03-22T18:36:55.577Z,22.7
2019-03-22T18:46:59.095Z,22.7
2019-03-22T18:57:02.615Z,22.7
2019-03-22T19:07:06.145Z,22.7
2019-03-22T19:17:09.643Z,22.6
2019-03-22T19:27:13.162Z,22.6
2019-03-22T19:37:16.671Z,22.6
2019-03-22T19:47:20.189Z,22.6
2019-03-22T19:57:23.757Z,22.6
2019-03-22T20:07:27.275Z,22.6
2019-03-22T20:17:30.787Z,22.6
2019-03-22T20:27:34.304Z,22.6
2019-03-22T20:37:37.842Z,22.6
2019-03-22T20:47:41.329Z,22.6
2019-03-22T20:57:44.838Z,22.6
2019-03-22T21:07:48.367Z,22.6
2019-03-22T21:17:51.887Z,22.5
2019-03-22T21:27:55.423Z,22.4
2019-03-22T21:37:58.932Z,22.2
2019-03-22T21:48:13.506Z,22.1
2019-03-22T21:58:17.091Z,22
2019-03-22T22:08:20.639Z,21.9
2019-03-22T22:18:24.122Z,21.9
2019-03-22T22:28:27.653Z,21.8
2019-03-22T22:38:31.157Z,21.8
2019-03-22T22:48:34.665Z,21.7
2019-03-22T22:58:38.177Z,21.7
2019-03-22T23:08:41.747Z,21.6
2019-03-22T23:18:45.261Z,21.6
2019-03-22T23:28:48.799Z,21.5
2019-03-22T23:38:52.297Z,21.5
2019-03-22T23:48:55.841Z,21.4
2019-03-22T23:58:59.352Z,21.4
